createdAt,value
2022-11-05T08:13:44.815Z,12.21
2022-11-05T08:16:51.731Z,12.12
2022-11-05T08:19:55.792Z,11.63
2022-11-05T08:23:02.903Z,11.70
2022-11-05T08:26:06.901Z,12.00
2022-11-05T08:29:11.043Z,12.09
2022-11-05T08:32:17.496Z,11.94
2022-11-05T08:35:30.911Z,12.06
2022-11-05T09:07:05.969Z,12.66
2022-11-05T09:10:10.076Z,12.94
2022-11-05T09:13:18.721Z,12.98
2022-11-05T09:16:34.288Z,12.59
2022-11-05T09:19:40.081Z,12.38
2022-11-05T09:22:44.181Z,12.52
2022-11-05T09:25:48.280Z,12.73
2022-11-05T09:29:09.197Z,13.05
2022-11-05T09:32:20.878Z,12.97
2022-11-05T09:35:29.406Z,13.09
2022-11-05T09:38:38.453Z,12.64
2022-11-05T09:41:44.204Z,12.66
2022-11-05T09:44:52.235Z,12.65
2022-11-05T09:47:56.649Z,12.67
2022-11-05T09:51:01.950Z,12.80
2022-11-05T09:54:06.916Z,13.20
2022-11-05T09:57:14.989Z,12.99
2022-11-05T10:00:18.991Z,13.19
2022-11-05T10:03:24.319Z,13.18
2022-11-05T10:06:33.159Z,13.23
2022-11-05T10:09:37.426Z,13.23
2022-11-05T10:16:10.616Z,13.20
2022-11-05T10:19:14.800Z,13.50
2022-11-05T10:22:18.673Z,13.77
2022-11-05T10:25:27.437Z,13.91
2022-11-05T10:28:35.945Z,13.52
2022-11-05T10:31:40.368Z,14.22
2022-11-05T10:34:44.272Z,14.01
2022-11-05T10:37:48.295Z,14.02
2022-11-05T10:40:53.409Z,13.40
2022-11-05T10:43:58.599Z,13.62
2022-11-05T10:47:02.603Z,13.69
2022-11-05T10:50:07.049Z,13.86
2022-11-05T10:53:12.967Z,13.79
2022-11-05T10:56:17.174Z,14.09
2022-11-05T10:59:21.008Z,13.48
2022-11-05T11:02:24.945Z,13.36
2022-11-05T11:05:28.767Z,14.02
2022-11-05T11:08:32.534Z,13.50
2022-11-05T11:11:36.381Z,13.73
2022-11-05T11:14:40.196Z,13.77
2022-11-05T11:17:44.235Z,14.31
2022-11-05T11:20:48.005Z,14.48
2022-11-05T11:23:52.192Z,14.54
2022-11-05T11:26:56.595Z,14.57
2022-11-05T11:30:00.635Z,14.63
2022-11-05T11:33:04.925Z,14.60
2022-11-05T11:36:08.906Z,14.84
2022-11-05T11:39:12.678Z,14.06
2022-11-05T11:42:16.801Z,14.04
2022-11-05T11:45:20.894Z,14.39
2022-11-05T11:48:24.646Z,13.95
2022-11-05T11:54:50.623Z,13.92
2022-11-05T11:57:54.512Z,14.46
2022-11-05T12:01:00.448Z,14.62
2022-11-05T12:04:04.537Z,14.23
2022-11-05T12:07:08.864Z,13.64
2022-11-05T12:10:12.811Z,14.02
2022-11-05T12:13:18.038Z,14.43
2022-11-05T12:16:23.145Z,14.29
2022-11-05T12:19:27.311Z,13.95
2022-11-05T12:22:31.088Z,13.57
2022-11-05T12:25:35.316Z,13.72
2022-11-05T12:29:04.811Z,13.15
2022-11-05T12:32:04.221Z,14.10
2022-11-05T12:35:08.468Z,14.14
2022-11-05T12:38:12.318Z,14.34
2022-11-05T12:41:16.335Z,14.34
2022-11-05T12:44:20.411Z,13.95
2022-11-05T12:47:24.669Z,14.78
2022-11-05T12:50:28.552Z,14.89
2022-11-05T12:53:32.789Z,14.17
2022-11-05T12:56:36.734Z,13.93
2022-11-05T12:59:40.515Z,14.32
2022-11-05T13:02:44.406Z,13.86
2022-11-05T13:05:48.567Z,14.51
2022-11-05T13:08:52.432Z,14.73
2022-11-05T13:11:59.674Z,13.89
2022-11-05T13:15:06.620Z,14.26
2022-11-05T13:18:13.835Z,13.90
2022-11-05T13:21:18.795Z,13.42
2022-11-05T13:24:22.820Z,13.60
2022-11-05T13:27:27.964Z,13.68
2022-11-05T13:34:02.788Z,13.21
2022-11-05T13:37:10.273Z,13.51
2022-11-05T13:40:25.189Z,14.02
2022-11-05T13:43:36.909Z,13.90
2022-11-05T13:46:47.340Z,13.59
2022-11-05T13:50:02.081Z,14.14
2022-11-05T13:53:06.157Z,14.15
2022-11-05T13:56:19.311Z,13.61
2022-11-05T14:06:16.408Z,14.16
2022-11-05T14:16:04.065Z,13.46
2022-11-05T14:19:09.356Z,13.79
2022-11-05T14:22:13.840Z,13.84
2022-11-05T14:25:18.171Z,13.91
2022-11-05T14:28:28.071Z,13.62
2022-11-05T14:34:52.667Z,13.24
2022-11-05T14:37:57.095Z,13.46
2022-11-05T14:41:00.954Z,13.36
2022-11-05T14:44:08.290Z,13.16
2022-11-05T14:47:19.795Z,13.53
2022-11-05T16:17:04.690Z,12.56
2022-11-05T16:20:10.160Z,12.54
2022-11-05T16:23:14.227Z,12.34
2022-11-05T16:26:35.019Z,12.39
2022-11-05T16:29:41.634Z,12.32
2022-11-05T16:32:45.845Z,12.49
2022-11-05T16:35:49.893Z,12.50
2022-11-05T16:38:53.899Z,12.40
2022-11-05T16:41:58.042Z,12.38
2022-11-05T16:45:02.108Z,12.18
2022-11-05T16:48:06.173Z,12.28
2022-11-05T16:51:11.390Z,12.23
2022-11-05T16:54:38.408Z,12.07
2022-11-05T16:57:43.119Z,12.20
2022-11-05T17:00:54.675Z,12.20
2022-11-05T17:32:15.442Z,10.96
2022-11-05T17:35:23.119Z,10.89
2022-11-05T17:47:36.764Z,10.88
2022-11-05T17:50:42.436Z,10.85
2022-11-05T17:53:49.837Z,10.69
2022-11-05T17:57:00.652Z,10.80
2022-11-05T18:30:25.042Z,10.37
2022-11-05T18:33:34.613Z,10.61
2022-11-05T18:40:08.277Z,10.25
2022-11-05T18:43:17.659Z,10.37
2022-11-05T18:46:51.207Z,10.33
2022-11-05T18:49:46.327Z,10.67
2022-11-05T18:52:50.336Z,10.44
2022-11-05T18:55:54.092Z,10.66
2022-11-05T18:59:30.131Z,10.56
2022-11-05T19:08:59.577Z,10.45
2022-11-05T19:44:18.328Z,10.12
2022-11-05T22:36:59.761Z,9.92
2022-11-05T23:57:59.179Z,8.97
